createdAt,value
2022-10-22T00:00:12.115Z,55.71
2022-10-22T00:01:15.636Z,55.71
2022-10-22T00:04:49.425Z,55.71
2022-10-22T00:04:52.546Z,55.62
2022-10-22T00:05:56.175Z,55.41
2022-10-22T00:06:59.755Z,55.39
2022-10-22T00:08:03.478Z,55.29
2022-10-22T00:09:07.182Z,55.29
2022-10-22T00:10:10.832Z,55.19
2022-10-22T00:11:14.461Z,55.41
2022-10-22T00:12:18.112Z,55.62
2022-10-22T00:13:21.791Z,55.62
2022-10-22T00:14:25.326Z,55.62
2022-10-22T00:15:28.936Z,55.51
2022-10-22T00:16:32.606Z,55.62
2022-10-22T00:17:36.272Z,55.62
2022-10-22T00:18:39.809Z,55.62
2022-10-22T00:19:43.399Z,55.62
2022-10-22T00:20:47.083Z,55.62
2022-10-22T00:21:50.786Z,55.71
2022-10-22T00:22:54.433Z,55.81
2022-10-22T00:23:58.237Z,55.81
2022-10-22T00:25:01.852Z,55.81
2022-10-22T00:26:05.524Z,55.81
2022-10-22T00:27:09.089Z,55.71
2022-10-22T00:28:12.661Z,55.71
2022-10-22T00:29:16.273Z,55.71
2022-10-22T00:30:20.000Z,55.51
2022-10-22T00:31:23.589Z,55.41
2022-10-22T00:32:27.183Z,55.51
2022-10-22T00:33:30.800Z,55.41
2022-10-22T00:34:34.484Z,55.29
2022-10-22T00:35:38.116Z,55.19
2022-10-22T00:36:41.725Z,55.19
2022-10-22T00:37:45.396Z,55.19
2022-10-22T00:38:49.050Z,55.32
2022-10-22T00:39:52.614Z,55.41
2022-10-22T00:40:56.226Z,55.51
2022-10-22T00:41:59.879Z,55.51
2022-10-22T00:43:03.571Z,55.51
2022-10-22T00:44:07.172Z,55.51
2022-10-22T00:45:10.754Z,55.51
2022-10-22T00:46:14.398Z,55.62
2022-10-22T00:47:18.091Z,55.62
2022-10-22T00:48:21.654Z,55.62
2022-10-22T00:49:25.211Z,55.62
2022-10-22T00:50:28.891Z,55.62
2022-10-22T00:51:32.505Z,55.62
2022-10-22T00:52:36.034Z,55.71
2022-10-22T00:53:39.653Z,55.62
2022-10-22T00:54:43.351Z,55.62
2022-10-22T00:55:47.028Z,55.62
2022-10-22T00:56:51.028Z,55.71
2022-10-22T00:57:54.542Z,55.71
2022-10-22T00:58:58.495Z,55.62
2022-10-22T01:00:02.196Z,55.51
2022-10-22T01:01:05.893Z,55.51
2022-10-22T01:02:09.494Z,55.62
2022-10-22T01:03:13.113Z,55.71
2022-10-22T01:04:16.778Z,55.62
2022-10-22T01:05:20.403Z,55.62
2022-10-22T01:06:23.924Z,55.62
2022-10-22T01:07:27.531Z,55.71
2022-10-22T01:08:31.309Z,55.71
2022-10-22T01:09:35.027Z,55.62
2022-10-22T01:10:38.544Z,55.41
2022-10-22T01:11:42.166Z,55.41
2022-10-22T01:12:45.850Z,55.41
2022-10-22T01:13:49.531Z,55.51
2022-10-22T01:14:53.093Z,55.62
2022-10-22T01:15:56.698Z,55.51
2022-10-22T01:17:00.358Z,55.51
2022-10-22T01:18:04.052Z,55.62
2022-10-22T01:19:07.570Z,55.62
2022-10-22T01:20:11.164Z,55.62
2022-10-22T01:21:14.838Z,55.62
2022-10-22T01:22:18.427Z,55.71
2022-10-22T01:23:21.963Z,55.62
2022-10-22T01:24:25.617Z,55.41
2022-10-22T01:25:29.281Z,55.41
2022-10-22T01:26:32.880Z,55.41
2022-10-22T01:27:36.461Z,55.51
2022-10-22T01:28:40.085Z,55.51
2022-10-22T01:29:43.707Z,55.41
2022-10-22T01:30:47.294Z,55.41
2022-10-22T01:31:50.832Z,55.41
2022-10-22T01:32:54.473Z,55.41
2022-10-22T01:33:58.223Z,55.51
2022-10-22T01:35:01.817Z,55.51
2022-10-22T01:36:05.472Z,55.51
2022-10-22T01:37:09.078Z,55.51
2022-10-22T01:38:12.803Z,55.51
2022-10-22T01:39:16.354Z,55.51
2022-10-22T01:40:19.923Z,55.51
2022-10-22T01:41:23.612Z,55.51
2022-10-22T01:42:27.276Z,55.51
2022-10-22T01:43:30.782Z,55.62
2022-10-22T01:44:37.707Z,55.51
2022-10-22T01:45:38.849Z,55.51
2022-10-22T01:46:42.600Z,55.51
2022-10-22T01:47:46.232Z,55.51
2022-10-22T01:48:50.186Z,55.62
2022-10-22T01:49:53.754Z,55.62
2022-10-22T01:50:57.415Z,55.71
2022-10-22T01:52:01.054Z,55.71
2022-10-22T01:53:04.655Z,55.74
2022-10-22T01:54:08.285Z,55.74
2022-10-22T01:55:12.292Z,55.74
2022-10-22T01:56:16.027Z,55.74
2022-10-22T01:57:19.585Z,55.64
2022-10-22T01:58:23.124Z,55.74
2022-10-22T01:59:26.801Z,55.74
2022-10-22T02:00:30.580Z,55.84
2022-10-22T02:01:34.213Z,55.84
2022-10-22T02:02:37.860Z,55.74
2022-10-22T02:03:41.564Z,55.74
2022-10-22T02:04:45.197Z,55.74
2022-10-22T02:05:48.775Z,55.74
2022-10-22T02:06:52.340Z,55.74
2022-10-22T02:07:56.049Z,55.62
2022-10-22T02:08:59.681Z,55.41
2022-10-22T02:10:03.243Z,55.32
2022-10-22T02:11:06.834Z,55.32
2022-10-22T02:12:10.537Z,55.32
2022-10-22T02:13:14.799Z,55.41
2022-10-22T02:14:18.495Z,55.51
2022-10-22T02:15:22.006Z,55.62
2022-10-22T02:16:25.587Z,55.64
2022-10-22T02:17:29.256Z,55.62
2022-10-22T02:18:36.300Z,55.64
2022-10-22T02:19:37.373Z,55.51
2022-10-22T02:20:41.041Z,55.54
2022-10-22T02:21:44.676Z,55.64
2022-10-22T02:22:48.368Z,55.64
2022-10-22T02:23:52.021Z,55.62
2022-10-22T02:24:55.610Z,55.62
2022-10-22T02:25:59.231Z,55.54
2022-10-22T02:27:02.957Z,55.41
2022-10-22T02:28:06.605Z,55.41
2022-10-22T02:29:10.127Z,55.41
2022-10-22T02:30:13.797Z,55.41
2022-10-22T02:31:17.521Z,55.51
2022-10-22T02:32:21.093Z,55.51
2022-10-22T02:33:24.633Z,55.51
2022-10-22T02:34:28.284Z,55.51
2022-10-22T02:35:31.866Z,55.51
2022-10-22T02:36:35.372Z,55.62
2022-10-22T02:37:38.987Z,55.64
2022-10-22T02:38:42.629Z,55.51
2022-10-22T02:39:46.181Z,55.41
2022-10-22T02:40:49.735Z,55.41
2022-10-22T02:41:53.391Z,55.41
2022-10-22T02:42:57.097Z,55.51
2022-10-22T02:44:00.708Z,55.54
2022-10-22T02:45:04.228Z,55.51
2022-10-22T02:46:07.839Z,55.54
2022-10-22T02:47:11.479Z,55.64
2022-10-22T02:48:15.146Z,55.51
2022-10-22T02:49:18.768Z,55.51
2022-10-22T02:50:22.385Z,55.54
2022-10-22T02:51:26.090Z,55.64
2022-10-22T02:52:29.680Z,55.54
2022-10-22T02:53:33.276Z,55.54
2022-10-22T02:54:36.864Z,55.64
2022-10-22T02:55:40.592Z,55.54
2022-10-22T02:56:44.252Z,55.64
2022-10-22T02:57:47.775Z,55.64
2022-10-22T02:58:51.355Z,55.64
2022-10-22T02:59:55.064Z,55.54
2022-10-22T03:00:58.837Z,55.54
2022-10-22T03:02:02.495Z,55.51
2022-10-22T03:03:06.033Z,55.41
2022-10-22T03:04:09.730Z,55.41
2022-10-22T03:05:13.376Z,55.44
2022-10-22T03:06:17.064Z,55.41
2022-10-22T03:07:20.708Z,55.54
2022-10-22T03:08:24.356Z,55.54
2022-10-22T03:09:28.000Z,55.54
2022-10-22T03:10:31.616Z,55.54
2022-10-22T03:11:35.199Z,55.54
2022-10-22T03:12:38.862Z,55.41
2022-10-22T03:13:42.501Z,55.41
2022-10-22T03:14:45.997Z,55.32
2022-10-22T03:15:49.633Z,55.21
2022-10-22T03:16:53.310Z,55.21
2022-10-22T03:17:56.919Z,55.21
2022-10-22T03:19:00.447Z,55.32
2022-10-22T03:20:04.033Z,55.32
2022-10-22T03:21:07.667Z,55.32
2022-10-22T03:22:11.303Z,55.21
2022-10-22T03:23:14.827Z,55.32
2022-10-22T03:24:18.410Z,55.32
2022-10-22T03:25:22.067Z,55.32
2022-10-22T03:26:25.711Z,55.41
2022-10-22T03:27:29.244Z,55.44
2022-10-22T03:28:32.829Z,55.41
2022-10-22T03:29:36.522Z,55.41
2022-10-22T03:30:40.147Z,55.44
2022-10-22T03:31:43.676Z,55.32
2022-10-22T03:32:47.305Z,55.44
2022-10-22T03:33:50.979Z,55.41
2022-10-22T03:34:54.630Z,55.44
2022-10-22T03:35:58.259Z,55.41
2022-10-22T03:37:01.801Z,55.41
2022-10-22T03:38:05.522Z,55.44
2022-10-22T03:39:09.251Z,55.54
2022-10-22T03:40:12.832Z,55.44
2022-10-22T03:41:16.392Z,55.41
2022-10-22T03:42:20.006Z,55.44
2022-10-22T03:43:23.703Z,55.44
2022-10-22T03:44:27.264Z,55.44
2022-10-22T03:45:30.936Z,55.54
2022-10-22T03:46:34.618Z,55.54
2022-10-22T03:47:38.650Z,55.54
2022-10-22T03:48:42.520Z,55.54
2022-10-22T03:49:46.216Z,55.41
2022-10-22T03:50:49.731Z,55.32
2022-10-22T03:51:53.353Z,55.21
2022-10-22T03:52:57.055Z,55.32
2022-10-22T03:54:00.619Z,55.44
2022-10-22T03:55:04.172Z,55.54
2022-10-22T03:56:07.843Z,55.54
2022-10-22T03:57:11.480Z,55.54
2022-10-22T03:58:15.018Z,55.64
2022-10-22T03:59:18.603Z,55.64
2022-10-22T04:00:22.244Z,55.54
2022-10-22T04:01:25.868Z,55.54
2022-10-22T04:02:29.461Z,55.44
2022-10-22T04:03:33.101Z,55.44
2022-10-22T04:04:36.825Z,55.44
2022-10-22T04:05:40.370Z,55.44
2022-10-22T04:06:44.023Z,55.34
2022-10-22T04:07:47.658Z,55.34
2022-10-22T04:08:51.324Z,55.34
2022-10-22T04:09:54.902Z,55.34
2022-10-22T04:10:58.517Z,55.44
2022-10-22T04:12:02.204Z,55.44
2022-10-22T04:13:05.825Z,55.44
2022-10-22T04:14:09.429Z,55.44
2022-10-22T04:15:13.055Z,55.44
2022-10-22T04:16:16.780Z,55.34
2022-10-22T04:17:20.345Z,55.34
2022-10-22T04:18:23.890Z,55.34
2022-10-22T04:19:27.656Z,55.44
2022-10-22T04:20:31.325Z,55.44
2022-10-22T04:21:34.918Z,55.44
2022-10-22T04:22:38.500Z,55.44
2022-10-22T04:23:42.177Z,55.44
2022-10-22T04:24:45.836Z,55.44
2022-10-22T04:25:49.436Z,55.44
2022-10-22T04:26:53.040Z,55.44
2022-10-22T04:27:56.739Z,55.44
2022-10-22T04:29:00.384Z,55.44
2022-10-22T04:30:03.901Z,55.54
2022-10-22T04:31:07.527Z,55.54
2022-10-22T04:32:11.234Z,55.54
2022-10-22T04:33:14.784Z,55.34
2022-10-22T04:34:18.329Z,55.32
2022-10-22T04:35:22.117Z,55.24
2022-10-22T04:36:25.833Z,55.34
2022-10-22T04:37:29.372Z,55.34
2022-10-22T04:38:32.971Z,55.44
2022-10-22T04:39:36.634Z,55.34
2022-10-22T04:40:40.320Z,55.21
2022-10-22T04:41:43.874Z,55.21
2022-10-22T04:42:47.479Z,55.24
2022-10-22T04:43:51.121Z,55.34
2022-10-22T04:44:54.805Z,55.44
2022-10-22T04:45:58.300Z,55.44
2022-10-22T04:47:01.915Z,55.54
2022-10-22T04:48:05.599Z,55.44
2022-10-22T04:49:09.164Z,55.44
2022-10-22T04:50:12.729Z,55.54
2022-10-22T04:51:16.464Z,55.54
2022-10-22T04:52:20.117Z,55.54
2022-10-22T04:53:23.768Z,55.44
2022-10-22T04:54:30.511Z,55.44
2022-10-22T04:56:35.287Z,55.34
2022-10-22T04:57:39.359Z,55.24
2022-10-22T04:58:43.303Z,55.34
2022-10-22T04:59:46.863Z,55.34
2022-10-22T05:00:50.496Z,55.24
2022-10-22T05:01:54.210Z,55.24
2022-10-22T05:02:57.858Z,55.24
2022-10-22T05:04:01.399Z,55.24
2022-10-22T05:05:04.983Z,55.14
2022-10-22T05:06:08.693Z,55.24
2022-10-22T05:07:12.361Z,55.24
2022-10-22T05:08:15.928Z,55.34
2022-10-22T05:09:19.674Z,55.24
2022-10-22T05:10:23.448Z,55.24
2022-10-22T05:11:27.032Z,55.34
2022-10-22T05:12:33.461Z,55.24
2022-10-22T05:13:34.550Z,55.34
2022-10-22T05:14:42.551Z,55.34
2022-10-22T05:15:40.734Z,55.34
2022-10-22T05:17:48.074Z,55.34
2022-10-22T05:18:51.672Z,55.34
2022-10-22T05:19:55.304Z,55.34
2022-10-22T05:20:59.024Z,55.34
2022-10-22T05:22:02.579Z,55.24
2022-10-22T05:23:06.243Z,55.34
2022-10-22T05:24:09.907Z,55.34
2022-10-22T05:25:13.606Z,55.34
2022-10-22T05:26:17.166Z,55.34
2022-10-22T05:27:20.723Z,55.34
2022-10-22T05:28:24.400Z,55.44
2022-10-22T05:29:28.091Z,55.44
2022-10-22T05:30:31.605Z,55.34
2022-10-22T05:31:35.174Z,55.44
2022-10-22T05:32:38.894Z,55.44
2022-10-22T05:33:42.499Z,55.44
2022-10-22T05:34:46.060Z,55.34
2022-10-22T05:35:49.749Z,55.44
2022-10-22T05:36:53.374Z,55.44
2022-10-22T05:39:00.648Z,55.34
2022-10-22T05:40:19.022Z,55.24
2022-10-22T05:41:07.689Z,55.24
2022-10-22T05:42:11.300Z,55.24
2022-10-22T05:43:14.930Z,55.24
2022-10-22T05:44:18.590Z,55.24
2022-10-22T05:45:22.228Z,55.14
2022-10-22T05:46:25.780Z,55.14
2022-10-22T05:47:29.481Z,55.24
2022-10-22T05:49:36.606Z,55.24
2022-10-22T05:50:40.220Z,55.34
2022-10-22T05:51:43.929Z,55.34
2022-10-22T05:52:47.534Z,55.34
2022-10-22T05:53:51.040Z,55.34
2022-10-22T05:54:54.687Z,55.34
2022-10-22T05:55:58.410Z,55.34
2022-10-22T05:57:01.971Z,55.34
2022-10-22T05:58:05.575Z,55.34
2022-10-22T05:59:09.200Z,55.34
2022-10-22T06:00:15.709Z,55.34
2022-10-22T06:01:17.678Z,55.24
2022-10-22T06:02:21.410Z,55.24
2022-10-22T06:03:24.997Z,55.24
2022-10-22T06:04:28.558Z,55.24
2022-10-22T06:05:32.285Z,55.24
2022-10-22T06:06:35.978Z,55.24
2022-10-22T06:07:39.523Z,55.34
2022-10-22T06:08:43.144Z,55.34
2022-10-22T06:09:46.838Z,55.44
2022-10-22T06:10:50.463Z,55.34
2022-10-22T06:11:54.007Z,55.34
2022-10-22T06:12:57.578Z,55.34
2022-10-22T06:14:01.272Z,55.34
2022-10-22T06:15:04.879Z,55.34
2022-10-22T06:16:08.454Z,55.34
2022-10-22T06:17:12.063Z,55.34
2022-10-22T06:18:15.682Z,55.34
2022-10-22T06:19:19.290Z,55.34
2022-10-22T06:20:22.836Z,55.34
2022-10-22T06:21:26.490Z,55.24
2022-10-22T06:22:30.172Z,55.24
2022-10-22T06:23:33.707Z,55.24
2022-10-22T06:24:39.432Z,55.34
2022-10-22T06:25:40.277Z,55.24
2022-10-22T06:26:43.823Z,55.24
2022-10-22T06:27:47.568Z,55.24
2022-10-22T06:28:51.319Z,55.24
2022-10-22T06:29:54.932Z,55.24
2022-10-22T06:30:58.502Z,55.24
2022-10-22T06:32:02.175Z,55.24
2022-10-22T06:33:05.832Z,55.24
2022-10-22T06:34:09.413Z,55.34
2022-10-22T06:35:15.061Z,55.34
2022-10-22T06:36:16.281Z,55.34
2022-10-22T06:37:19.939Z,55.34
2022-10-22T06:38:23.531Z,55.44
2022-10-22T06:39:27.270Z,55.34
2022-10-22T06:40:30.927Z,55.34
2022-10-22T06:41:34.522Z,55.24
2022-10-22T06:42:38.488Z,55.14
2022-10-22T06:43:42.302Z,55.14
2022-10-22T06:44:46.044Z,55.24
2022-10-22T06:45:49.649Z,55.14
2022-10-22T06:46:53.211Z,55.24
2022-10-22T06:47:56.881Z,55.24
2022-10-22T06:49:00.622Z,55.34
2022-10-22T06:50:04.217Z,55.24
2022-10-22T06:51:07.798Z,55.14
2022-10-22T06:52:11.486Z,55.14
2022-10-22T06:53:15.236Z,55.24
2022-10-22T06:54:18.851Z,55.24
2022-10-22T06:55:22.420Z,55.24
2022-10-22T06:56:26.065Z,55.34
2022-10-22T06:57:29.647Z,55.34
2022-10-22T06:58:33.192Z,55.34
2022-10-22T06:59:36.821Z,55.24
2022-10-22T07:00:40.593Z,55.34
2022-10-22T07:01:44.260Z,55.34
2022-10-22T07:02:47.881Z,55.34
2022-10-22T07:03:51.567Z,55.34
2022-10-22T07:04:55.232Z,55.34
2022-10-22T07:05:58.848Z,55.34
2022-10-22T07:07:02.406Z,55.34
2022-10-22T07:08:06.063Z,55.24
2022-10-22T07:09:09.808Z,55.24
2022-10-22T07:10:13.467Z,55.24
2022-10-22T07:11:17.008Z,55.24
2022-10-22T07:12:20.717Z,55.24
2022-10-22T07:13:24.341Z,55.24
2022-10-22T07:14:27.903Z,55.24
2022-10-22T07:15:31.548Z,55.34
2022-10-22T07:16:35.210Z,55.24
2022-10-22T07:18:43.576Z,55.14
2022-10-22T07:19:49.753Z,55.14
2022-10-22T07:20:49.904Z,55.24
2022-10-22T07:21:53.553Z,55.24
2022-10-22T07:22:57.125Z,55.14
2022-10-22T07:24:00.703Z,55.14
2022-10-22T07:25:07.239Z,55.14
2022-10-22T07:26:08.768Z,55.14
2022-10-22T07:27:12.581Z,55.14
2022-10-22T07:28:16.095Z,55.14
2022-10-22T07:29:19.700Z,55.24
2022-10-22T07:30:23.462Z,55.24
2022-10-22T07:31:27.132Z,55.14
2022-10-22T07:32:30.652Z,55.04
2022-10-22T07:33:34.308Z,55.04
2022-10-22T07:34:40.536Z,55.04
2022-10-22T07:35:41.681Z,55.04
2022-10-22T07:36:45.225Z,55.14
2022-10-22T07:37:48.872Z,55.14
2022-10-22T07:38:52.470Z,55.14
2022-10-22T07:39:58.373Z,55.04
2022-10-22T07:40:58.850Z,55.02
2022-10-22T07:42:02.378Z,54.94
2022-10-22T07:43:06.010Z,54.82
2022-10-22T07:44:09.691Z,54.94
2022-10-22T07:45:13.292Z,54.91
2022-10-22T07:46:16.913Z,54.91
2022-10-22T07:47:20.573Z,55.04
2022-10-22T07:48:24.294Z,55.04
2022-10-22T07:49:27.864Z,55.04
2022-10-22T07:50:31.571Z,55.14
2022-10-22T07:51:35.343Z,55.14
2022-10-22T07:52:39.474Z,55.14
2022-10-22T07:53:43.503Z,55.14
2022-10-22T07:54:47.141Z,55.14
2022-10-22T07:55:50.720Z,55.04
2022-10-22T07:56:54.385Z,55.04
2022-10-22T07:57:58.089Z,55.04
2022-10-22T08:00:05.301Z,55.14
2022-10-22T08:01:09.026Z,55.14
2022-10-22T08:02:12.787Z,55.24
2022-10-22T08:03:16.371Z,55.24
2022-10-22T08:04:19.923Z,55.24
2022-10-22T08:05:23.652Z,55.24
2022-10-22T08:06:27.276Z,55.24
2022-10-22T08:07:30.837Z,55.14
2022-10-22T08:08:34.500Z,55.14
2022-10-22T08:09:38.286Z,55.04
2022-10-22T08:10:41.856Z,55.04
2022-10-22T08:11:45.412Z,55.04
2022-10-22T08:12:49.137Z,55.14
2022-10-22T08:13:52.771Z,55.14
2022-10-22T08:14:56.362Z,55.04
2022-10-22T08:16:00.040Z,55.04
2022-10-22T08:17:03.701Z,55.04
2022-10-22T08:18:07.370Z,54.91
2022-10-22T08:19:10.894Z,54.91
2022-10-22T08:20:14.534Z,55.04
2022-10-22T08:21:18.140Z,55.04
2022-10-22T08:22:21.632Z,55.04
2022-10-22T08:23:27.525Z,54.91
2022-10-22T08:24:29.648Z,54.82
2022-10-22T08:25:33.328Z,54.82
2022-10-22T08:26:36.915Z,54.71
2022-10-22T08:27:40.615Z,54.82
2022-10-22T08:28:44.300Z,54.82
2022-10-22T08:29:48.013Z,54.71
2022-10-22T08:30:51.633Z,54.71
2022-10-22T08:31:55.178Z,54.71
2022-10-22T08:32:58.968Z,54.61
2022-10-22T08:34:02.652Z,54.61
2022-10-22T08:35:06.255Z,54.61
2022-10-22T08:36:09.835Z,54.71
2022-10-22T08:37:13.527Z,54.61
2022-10-22T08:38:19.266Z,54.71
2022-10-22T08:39:20.382Z,54.71
2022-10-22T08:40:25.541Z,54.71
2022-10-22T08:41:26.577Z,54.82
2022-10-22T08:42:30.253Z,54.82
2022-10-22T08:43:33.876Z,54.71
2022-10-22T08:44:37.390Z,54.52
2022-10-22T08:45:41.002Z,54.41
2022-10-22T08:46:44.783Z,54.39
2022-10-22T08:47:48.429Z,54.29
2022-10-22T08:48:52.010Z,54.29
2022-10-22T08:49:55.665Z,54.41
2022-10-22T08:50:59.450Z,54.39
2022-10-22T08:52:03.136Z,54.41
2022-10-22T08:53:06.682Z,54.41
2022-10-22T08:54:10.334Z,54.39
2022-10-22T08:55:13.983Z,54.29
2022-10-22T08:56:17.679Z,54.29
2022-10-22T08:57:21.257Z,54.41
2022-10-22T08:58:24.944Z,54.41
2022-10-22T08:59:28.593Z,54.29
2022-10-22T09:00:32.239Z,54.29
2022-10-22T09:01:35.792Z,54.29
2022-10-22T09:02:39.986Z,54.29
2022-10-22T09:03:43.827Z,54.29
2022-10-22T09:04:47.476Z,54.29
2022-10-22T09:06:54.607Z,54.32
2022-10-22T09:07:58.214Z,54.41
2022-10-22T09:09:01.900Z,54.39
2022-10-22T09:10:05.512Z,54.39
2022-10-22T09:11:09.123Z,54.39
2022-10-22T09:12:16.323Z,54.39
2022-10-22T09:13:17.628Z,54.39
2022-10-22T09:14:21.269Z,54.39
2022-10-22T09:15:24.940Z,54.39
2022-10-22T09:16:28.486Z,54.41
2022-10-22T09:17:32.140Z,54.39
2022-10-22T09:18:35.817Z,54.39
2022-10-22T09:19:39.503Z,54.29
2022-10-22T09:20:43.063Z,54.29
2022-10-22T09:21:46.745Z,54.29
2022-10-22T09:22:50.419Z,54.29
2022-10-22T09:23:53.995Z,54.29
2022-10-22T09:24:57.594Z,54.82
2022-10-22T09:26:01.311Z,54.71
2022-10-22T09:27:04.932Z,54.69
2022-10-22T09:28:08.472Z,54.49
2022-10-22T09:29:12.088Z,54.59
2022-10-22T09:30:15.802Z,54.49
2022-10-22T09:31:19.344Z,55.26
2022-10-22T09:32:22.919Z,55.56
2022-10-22T09:33:26.607Z,56.16
2022-10-22T09:34:30.310Z,56.66
2022-10-22T09:35:33.808Z,56.66
2022-10-22T09:36:37.471Z,56.53
2022-10-22T09:42:53.907Z,60.00
2022-10-22T09:43:57.542Z,59.70
2022-10-22T09:45:01.039Z,59.11
2022-10-22T09:46:04.602Z,58.71
2022-10-22T09:47:08.235Z,58.48
2022-10-22T09:48:11.874Z,58.28
2022-10-22T09:49:15.372Z,58.28
2022-10-22T09:50:18.962Z,58.08
2022-10-22T09:51:22.623Z,58.18
2022-10-22T09:52:26.146Z,58.18
2022-10-22T09:53:29.700Z,58.08
2022-10-22T09:54:33.391Z,57.98
2022-10-22T09:55:37.053Z,58.08
2022-10-22T09:56:40.656Z,57.98
2022-10-22T09:57:44.609Z,57.98
2022-10-22T09:58:48.340Z,57.98
2022-10-22T09:59:52.064Z,57.91
2022-10-22T10:00:55.629Z,57.88
2022-10-22T10:02:08.480Z,57.88
2022-10-22T10:03:03.338Z,57.91
2022-10-22T10:04:09.864Z,57.91
2022-10-22T10:05:11.227Z,57.81
2022-10-22T10:06:14.818Z,57.78
2022-10-22T10:07:18.312Z,57.81
2022-10-22T10:08:21.939Z,57.81
2022-10-22T10:09:25.565Z,57.81
2022-10-22T10:10:29.063Z,57.81
2022-10-22T10:11:32.620Z,57.81
2022-10-22T10:12:36.385Z,57.81
2022-10-22T10:13:39.983Z,57.81
2022-10-22T10:14:43.517Z,57.81
2022-10-22T10:15:47.127Z,57.81
2022-10-22T10:16:50.800Z,57.81
2022-10-22T10:17:54.340Z,57.81
2022-10-22T10:18:57.881Z,57.71
2022-10-22T10:20:03.896Z,57.71
2022-10-22T10:21:05.664Z,57.61
2022-10-22T10:22:09.366Z,57.51
2022-10-22T10:23:12.886Z,57.51
2022-10-22T10:24:16.477Z,57.51
2022-10-22T10:25:20.143Z,57.41
2022-10-22T10:26:23.734Z,57.28
2022-10-22T10:27:27.261Z,57.28
2022-10-22T10:28:30.865Z,57.18
2022-10-22T10:29:34.710Z,57.18
2022-10-22T10:30:38.444Z,57.18
2022-10-22T10:31:41.993Z,57.18
2022-10-22T10:32:45.551Z,57.09
2022-10-22T10:33:49.265Z,56.98
2022-10-22T10:34:52.837Z,56.88
2022-10-22T10:35:56.341Z,56.88
2022-10-22T10:36:59.932Z,56.79
2022-10-22T10:38:03.568Z,56.68
2022-10-22T10:39:07.186Z,56.79
2022-10-22T10:40:10.765Z,56.68
2022-10-22T10:41:14.383Z,56.59
2022-10-22T10:42:18.073Z,56.46
2022-10-22T10:43:21.607Z,56.36
2022-10-22T10:44:25.156Z,56.36
2022-10-22T10:45:28.755Z,56.36
2022-10-22T10:46:34.900Z,56.48
2022-10-22T10:47:35.534Z,56.48
2022-10-22T10:48:39.139Z,56.48
2022-10-22T10:49:42.940Z,56.48
2022-10-22T10:50:46.559Z,56.38
2022-10-22T10:51:50.063Z,56.48
2022-10-22T10:52:53.660Z,56.36
2022-10-22T10:53:57.315Z,56.48
2022-10-22T10:55:00.836Z,56.38
2022-10-22T10:56:04.362Z,56.38
2022-10-22T10:57:08.041Z,56.26
2022-10-22T10:58:11.723Z,56.38
2022-10-22T10:59:15.299Z,56.29
2022-10-22T11:00:18.835Z,56.26
2022-10-22T11:01:22.485Z,56.29
2022-10-22T11:02:26.198Z,56.38
2022-10-22T11:03:29.847Z,56.38
2022-10-22T11:04:33.341Z,56.38
2022-10-22T11:05:36.904Z,56.38
2022-10-22T11:06:40.574Z,56.38
2022-10-22T11:07:44.156Z,56.29
2022-10-22T11:08:47.764Z,56.29
2022-10-22T11:09:51.342Z,56.29
2022-10-22T11:10:55.033Z,56.29
2022-10-22T11:11:58.685Z,56.29
2022-10-22T11:13:02.232Z,56.18
2022-10-22T11:14:05.804Z,56.18
2022-10-22T11:15:09.548Z,56.06
2022-10-22T11:16:13.104Z,56.06
2022-10-22T11:17:16.626Z,55.86
2022-10-22T11:18:20.283Z,55.86
2022-10-22T11:19:46.234Z,55.86
2022-10-22T11:20:28.538Z,55.76
2022-10-22T11:21:32.173Z,55.76
2022-10-22T11:22:35.686Z,55.76
2022-10-22T11:23:39.255Z,55.96
2022-10-22T11:24:42.910Z,55.86
2022-10-22T11:25:46.471Z,55.76
2022-10-22T11:26:49.959Z,55.86
2022-10-22T11:27:53.603Z,55.96
2022-10-22T11:28:57.339Z,55.96
2022-10-22T11:30:00.916Z,55.86
2022-10-22T11:31:04.467Z,55.76
2022-10-22T11:32:08.093Z,55.76
2022-10-22T11:33:11.807Z,55.66
2022-10-22T11:34:32.846Z,55.66
2022-10-22T11:35:23.552Z,55.66
2022-10-22T11:36:24.411Z,55.66
2022-10-22T11:37:28.027Z,55.56
2022-10-22T11:38:32.870Z,55.56
2022-10-22T11:39:36.033Z,55.66
2022-10-22T11:40:39.598Z,55.66
2022-10-22T11:41:43.223Z,55.66
2022-10-22T11:42:46.775Z,55.66
2022-10-22T11:43:50.375Z,55.66
2022-10-22T11:44:54.025Z,55.66
2022-10-22T11:45:57.628Z,55.66
2022-10-22T11:47:01.179Z,55.66
2022-10-22T11:48:04.776Z,55.66
2022-10-22T11:49:08.481Z,55.76
2022-10-22T11:50:12.077Z,55.76
2022-10-22T11:51:15.595Z,55.76
2022-10-22T11:52:19.191Z,55.76
2022-10-22T11:53:22.866Z,55.76
2022-10-22T11:54:26.390Z,55.88
2022-10-22T11:55:29.939Z,56.16
2022-10-22T11:56:33.647Z,56.16
2022-10-22T11:57:37.247Z,56.06
2022-10-22T11:58:40.802Z,55.83
2022-10-22T11:59:44.362Z,55.63
2022-10-22T12:00:48.090Z,55.54
2022-10-22T12:01:51.688Z,55.54
2022-10-22T12:02:55.185Z,55.43
2022-10-22T12:03:58.808Z,55.43
2022-10-22T12:05:02.471Z,55.56
2022-10-22T12:06:06.059Z,55.56
2022-10-22T12:07:09.596Z,55.76
2022-10-22T12:08:15.666Z,55.86
2022-10-22T12:09:17.156Z,55.86
2022-10-22T12:10:20.802Z,55.76
2022-10-22T12:11:24.324Z,55.86
2022-10-22T12:12:27.950Z,55.76
2022-10-22T12:13:31.576Z,55.76
2022-10-22T12:14:35.109Z,55.66
2022-10-22T12:15:38.699Z,55.76
2022-10-22T12:16:55.580Z,55.76
2022-10-22T12:17:46.970Z,55.66
2022-10-22T12:18:50.614Z,55.66
2022-10-22T12:19:56.402Z,55.66
2022-10-22T12:20:57.050Z,55.66
2022-10-22T12:22:00.755Z,55.66
2022-10-22T12:23:04.345Z,55.66
2022-10-22T12:24:07.921Z,55.76
2022-10-22T12:25:11.513Z,55.76
2022-10-22T12:26:15.108Z,55.76
2022-10-22T12:27:22.347Z,55.76
2022-10-22T12:28:21.604Z,55.76
2022-10-22T12:29:25.190Z,55.76
2022-10-22T12:30:28.705Z,55.76
2022-10-22T12:31:32.283Z,55.76
2022-10-22T12:32:36.046Z,55.76
2022-10-22T12:33:39.607Z,55.76
2022-10-22T12:34:43.124Z,55.76
2022-10-22T12:35:46.779Z,55.76
2022-10-22T12:36:50.418Z,55.76
2022-10-22T12:37:53.989Z,55.86
2022-10-22T12:38:57.517Z,55.86
2022-10-22T12:40:01.224Z,55.86
2022-10-22T12:41:04.823Z,55.76
2022-10-22T12:42:08.308Z,55.76
2022-10-22T12:43:11.894Z,55.76
2022-10-22T12:44:15.589Z,55.76
2022-10-22T12:45:19.157Z,55.76
2022-10-22T12:46:22.644Z,55.76
2022-10-22T12:47:26.299Z,55.79
2022-10-22T12:48:29.949Z,55.88
2022-10-22T12:49:33.545Z,55.99
2022-10-22T12:50:37.041Z,55.88
2022-10-22T12:51:40.642Z,55.99
2022-10-22T12:52:44.419Z,55.88
2022-10-22T12:53:48.045Z,55.86
2022-10-22T12:54:51.551Z,55.76
2022-10-22T12:55:55.192Z,55.66
2022-10-22T12:56:58.823Z,55.76
2022-10-22T12:58:02.378Z,55.76
2022-10-22T12:59:05.886Z,55.66
2022-10-22T13:00:09.490Z,55.76
2022-10-22T13:01:13.210Z,55.76
2022-10-22T13:02:16.823Z,55.76
2022-10-22T13:03:20.314Z,55.76
2022-10-22T13:04:23.958Z,55.79
2022-10-22T13:05:27.592Z,55.76
2022-10-22T13:06:31.153Z,55.79
2022-10-22T13:07:34.655Z,55.79
2022-10-22T13:08:38.286Z,55.88
2022-10-22T13:09:42.028Z,55.99
2022-10-22T13:10:45.583Z,55.88
2022-10-22T13:11:49.081Z,55.88
2022-10-22T13:12:52.707Z,55.88
2022-10-22T13:13:56.402Z,55.79
2022-10-22T13:14:59.989Z,55.79
2022-10-22T13:16:03.477Z,55.76
2022-10-22T13:17:07.074Z,55.79
2022-10-22T13:18:10.704Z,55.79
2022-10-22T13:19:14.234Z,55.79
2022-10-22T13:20:17.769Z,55.76
2022-10-22T13:21:21.472Z,55.76
2022-10-22T13:22:25.077Z,55.76
2022-10-22T13:23:28.630Z,55.66
2022-10-22T13:24:32.228Z,55.79
2022-10-22T13:25:35.918Z,55.76
2022-10-22T13:26:39.520Z,55.79
2022-10-22T13:27:43.283Z,55.79
2022-10-22T13:28:46.883Z,55.79
2022-10-22T13:29:50.576Z,55.76
2022-10-22T13:30:54.283Z,55.66
2022-10-22T13:31:57.807Z,55.88
2022-10-22T13:33:01.330Z,55.99
2022-10-22T13:34:08.523Z,55.99
2022-10-22T13:35:09.403Z,55.86
2022-10-22T13:36:13.048Z,55.56
2022-10-22T13:37:16.640Z,55.36
2022-10-22T13:38:20.125Z,55.36
2022-10-22T13:39:23.760Z,55.56
2022-10-22T13:40:27.361Z,55.56
2022-10-22T13:41:30.974Z,55.56
2022-10-22T13:42:34.546Z,55.56
2022-10-22T13:43:38.184Z,55.56
2022-10-22T13:44:41.782Z,55.46
2022-10-22T13:45:45.275Z,55.36
2022-10-22T13:46:48.846Z,55.36
2022-10-22T13:47:52.494Z,55.36
2022-10-22T13:48:56.090Z,55.36
2022-10-22T13:49:59.586Z,55.36
2022-10-22T13:51:03.187Z,55.36
2022-10-22T13:52:06.809Z,55.36
2022-10-22T13:53:10.393Z,55.46